Terminal Aerodrome Forecast
Issued by NWS Grand Junction, CO

Home | Current Version | Previous Version | Text Only | Print | Product List | Glossary On
Versions: 1 2 3 4 5 6 7 8 9 10 11 12 13 14 15 16 17 18 19 20 21 22 23 24 25 26 27 28 29 30 31 32
000
FTUS45 KGJT 241235 AAB
TAFGJT
TAF AMD
KGJT 241235Z 2413/2512 16006KT P6SM VCSH SCT080 BKN120
      TEMPO 2413/2415 16012G20KT -RA BKN080
     FM241500 16008KT P6SM FEW080 SCT200
     FM241900 28012G18KT P6SM FEW080 SCT200
     FM250100 35015G23KT P6SM FEW120 FEW250
     FM250500 35006KT P6SM SKC=

USA.gov is the U.S. government's official web portal to all federal, state and local government web resources and services.